sensor_id;sensor_type;location;lat;lon;timestamp;P1;durP1;ratioP1;P2;durP2;ratioP2
59938;SDS011;45801;51.810;19.444;2024-01-10T00:00:03;104.80;;;57.30;;
59938;SDS011;45801;51.810;19.444;2024-01-10T00:02:31;105.90;;;55.40;;
59938;SDS011;45801;51.810;19.444;2024-01-10T00:04:58;104.70;;;55.70;;
59938;SDS011;45801;51.810;19.444;2024-01-10T00:07:24;108.50;;;54.60;;
59938;SDS011;45801;51.810;19.444;2024-01-10T00:09:52;105.80;;;56.30;;
59938;SDS011;45801;51.810;19.444;2024-01-10T00:12:18;108.20;;;53.10;;
59938;SDS011;45801;51.810;19.444;2024-01-10T00:14:45;109.80;;;54.50;;
59938;SDS011;45801;51.810;19.444;2024-01-10T00:17:12;104.10;;;55.00;;
59938;SDS011;45801;51.810;19.444;2024-01-10T00:19:39;104.00;;;53.50;;
59938;SDS011;45801;51.810;19.444;2024-01-10T00:22:05;99.50;;;52.70;;
59938;SDS011;45801;51.810;19.444;2024-01-10T00:24:32;98.60;;;51.50;;
59938;SDS011;45801;51.810;19.444;2024-01-10T00:27:00;95.30;;;51.80;;
59938;SDS011;45801;51.810;19.444;2024-01-10T00:29:26;93.80;;;51.80;;
59938;SDS011;45801;51.810;19.444;2024-01-10T00:31:53;100.70;;;52.90;;
59938;SDS011;45801;51.810;19.444;2024-01-10T00:34:19;92.00;;;49.50;;
59938;SDS011;45801;51.810;19.444;2024-01-10T00:36:46;95.10;;;53.30;;
59938;SDS011;45801;51.810;19.444;2024-01-10T00:39:12;96.10;;;50.60;;
59938;SDS011;45801;51.810;19.444;2024-01-10T00:41:39;88.00;;;51.80;;
59938;SDS011;45801;51.810;19.444;2024-01-10T00:44:07;96.80;;;48.30;;
59938;SDS011;45801;51.810;19.444;2024-01-10T00:46:34;88.10;;;50.10;;
59938;SDS011;45801;51.810;19.444;2024-01-10T00:49:00;98.30;;;51.00;;
59938;SDS011;45801;51.810;19.444;2024-01-10T00:51:27;92.60;;;47.00;;
59938;SDS011;45801;51.810;19.444;2024-01-10T00:53:53;90.60;;;48.60;;
59938;SDS011;45801;51.810;19.444;2024-01-10T00:56:20;86.20;;;47.80;;
59938;SDS011;45801;51.810;19.444;2024-01-10T00:58:47;95.70;;;50.10;;
59938;SDS011;45801;51.810;19.444;2024-01-10T01:01:13;89.20;;;45.80;;
59938;SDS011;45801;51.810;19.444;2024-01-10T01:03:39;83.00;;;47.80;;
59938;SDS011;45801;51.810;19.444;2024-01-10T01:06:06;92.80;;;48.90;;
59938;SDS011;45801;51.810;19.444;2024-01-10T01:08:34;92.10;;;49.10;;
59938;SDS011;45801;51.810;19.444;2024-01-10T01:11:00;93.00;;;46.70;;
59938;SDS011;45801;51.810;19.444;2024-01-10T01:13:27;83.70;;;45.40;;
59938;SDS011;45801;51.810;19.444;2024-01-10T01:15:53;86.10;;;44.40;;
59938;SDS011;45801;51.810;19.444;2024-01-10T01:18:20;62.00;;;34.80;;
59938;SDS011;45801;51.810;19.444;2024-01-10T01:20:46;84.00;;;47.10;;
59938;SDS011;45801;51.810;19.444;2024-01-10T01:23:15;87.60;;;46.30;;
59938;SDS011;45801;51.810;19.444;2024-01-10T01:25:42;83.70;;;44.70;;
59938;SDS011;45801;51.810;19.444;2024-01-10T01:28:08;85.50;;;44.60;;
59938;SDS011;45801;51.810;19.444;2024-01-10T01:30:35;89.10;;;45.30;;
59938;SDS011;45801;51.810;19.444;2024-01-10T01:33:01;79.40;;;45.80;;
59938;SDS011;45801;51.810;19.444;2024-01-10T01:35:31;82.20;;;45.60;;
59938;SDS011;45801;51.810;19.444;2024-01-10T01:37:57;77.70;;;43.10;;
59938;SDS011;45801;51.810;19.444;2024-01-10T01:40:24;84.30;;;45.60;;
59938;SDS011;45801;51.810;19.444;2024-01-10T01:42:50;84.50;;;44.40;;
59938;SDS011;45801;51.810;19.444;2024-01-10T01:45:17;86.40;;;44.30;;
59938;SDS011;45801;51.810;19.444;2024-01-10T01:47:43;77.40;;;42.50;;
59938;SDS011;45801;51.810;19.444;2024-01-10T01:50:11;75.80;;;40.60;;
59938;SDS011;45801;51.810;19.444;2024-01-10T01:52:37;81.80;;;42.50;;
59938;SDS011;45801;51.810;19.444;2024-01-10T01:55:05;79.30;;;41.00;;
59938;SDS011;45801;51.810;19.444;2024-01-10T01:57:34;86.10;;;41.30;;
59938;SDS011;45801;51.810;19.444;2024-01-10T02:00:01;78.60;;;42.50;;
59938;SDS011;45801;51.810;19.444;2024-01-10T02:02:30;78.20;;;41.10;;
59938;SDS011;45801;51.810;19.444;2024-01-10T02:04:57;80.70;;;41.20;;
59938;SDS011;45801;51.810;19.444;2024-01-10T02:07:24;81.20;;;42.90;;
59938;SDS011;45801;51.810;19.444;2024-01-10T02:09:52;83.50;;;42.30;;
59938;SDS011;45801;51.810;19.444;2024-01-10T02:12:19;78.60;;;41.00;;
59938;SDS011;45801;51.810;19.444;2024-01-10T02:14:46;71.40;;;41.60;;
59938;SDS011;45801;51.810;19.444;2024-01-10T02:17:13;73.80;;;41.50;;
59938;SDS011;45801;51.810;19.444;2024-01-10T02:19:40;81.60;;;42.70;;
59938;SDS011;45801;51.810;19.444;2024-01-10T02:22:07;79.40;;;41.20;;
59938;SDS011;45801;51.810;19.444;2024-01-10T02:24:33;77.30;;;42.00;;
59938;SDS011;45801;51.810;19.444;2024-01-10T02:27:00;82.00;;;43.00;;
59938;SDS011;45801;51.810;19.444;2024-01-10T02:29:27;81.80;;;43.20;;
59938;SDS011;45801;51.810;19.444;2024-01-10T02:31:54;80.70;;;42.90;;
59938;SDS011;45801;51.810;19.444;2024-01-10T02:34:20;80.90;;;41.60;;
59938;SDS011;45801;51.810;19.444;2024-01-10T02:36:47;80.30;;;41.30;;
59938;SDS011;45801;51.810;19.444;2024-01-10T02:39:13;83.70;;;42.80;;
59938;SDS011;45801;51.810;19.444;2024-01-10T02:41:40;78.20;;;41.10;;
59938;SDS011;45801;51.810;19.444;2024-01-10T02:44:06;73.40;;;40.60;;
59938;SDS011;45801;51.810;19.444;2024-01-10T02:46:33;74.20;;;42.30;;
59938;SDS011;45801;51.810;19.444;2024-01-10T02:48:59;80.80;;;40.60;;
59938;SDS011;45801;51.810;19.444;2024-01-10T02:51:26;77.90;;;40.00;;
59938;SDS011;45801;51.810;19.444;2024-01-10T02:53:53;74.30;;;39.30;;
59938;SDS011;45801;51.810;19.444;2024-01-10T02:56:20;78.80;;;41.40;;
59938;SDS011;45801;51.810;19.444;2024-01-10T02:58:46;70.80;;;40.40;;
59938;SDS011;45801;51.810;19.444;2024-01-10T03:01:14;68.70;;;40.20;;
59938;SDS011;45801;51.810;19.444;2024-01-10T03:03:41;70.00;;;38.10;;
59938;SDS011;45801;51.810;19.444;2024-01-10T03:06:08;76.10;;;39.90;;
59938;SDS011;45801;51.810;19.444;2024-01-10T03:08:34;71.90;;;39.00;;
59938;SDS011;45801;51.810;19.444;2024-01-10T03:11:01;75.10;;;39.20;;
59938;SDS011;45801;51.810;19.444;2024-01-10T03:13:27;73.20;;;38.60;;
59938;SDS011;45801;51.810;19.444;2024-01-10T03:15:54;66.60;;;37.40;;
59938;SDS011;45801;51.810;19.444;2024-01-10T03:18:20;67.90;;;35.50;;
59938;SDS011;45801;51.810;19.444;2024-01-10T03:20:47;67.90;;;37.10;;
59938;SDS011;45801;51.810;19.444;2024-01-10T03:23:13;72.10;;;36.60;;
59938;SDS011;45801;51.810;19.444;2024-01-10T03:25:40;62.90;;;34.00;;
59938;SDS011;45801;51.810;19.444;2024-01-10T03:28:07;61.20;;;35.90;;
59938;SDS011;45801;51.810;19.444;2024-01-10T03:30:33;70.10;;;35.40;;
59938;SDS011;45801;51.810;19.444;2024-01-10T03:33:00;61.80;;;35.30;;
59938;SDS011;45801;51.810;19.444;2024-01-10T03:35:26;64.00;;;35.00;;
59938;SDS011;45801;51.810;19.444;2024-01-10T03:37:53;63.20;;;34.00;;
59938;SDS011;45801;51.810;19.444;2024-01-10T03:40:20;67.20;;;35.90;;
59938;SDS011;45801;51.810;19.444;2024-01-10T03:42:47;68.70;;;33.60;;
59938;SDS011;45801;51.810;19.444;2024-01-10T03:45:13;62.50;;;34.80;;
59938;SDS011;45801;51.810;19.444;2024-01-10T03:47:43;64.10;;;34.10;;
59938;SDS011;45801;51.810;19.444;2024-01-10T03:50:10;65.70;;;33.70;;
59938;SDS011;45801;51.810;19.444;2024-01-10T03:52:36;62.60;;;33.40;;
59938;SDS011;45801;51.810;19.444;2024-01-10T03:55:03;64.70;;;32.20;;
59938;SDS011;45801;51.810;19.444;2024-01-10T03:57:30;61.90;;;32.80;;
59938;SDS011;45801;51.810;19.444;2024-01-10T03:59:56;63.60;;;34.40;;
59938;SDS011;45801;51.810;19.444;2024-01-10T04:02:23;59.30;;;30.70;;
59938;SDS011;45801;51.810;19.444;2024-01-10T04:04:49;62.30;;;34.30;;
59938;SDS011;45801;51.810;19.444;2024-01-10T04:07:17;60.30;;;31.70;;
59938;SDS011;45801;51.810;19.444;2024-01-10T04:09:44;57.70;;;31.40;;
59938;SDS011;45801;51.810;19.444;2024-01-10T04:12:10;64.30;;;32.60;;
59938;SDS011;45801;51.810;19.444;2024-01-10T04:14:37;60.20;;;31.80;;
59938;SDS011;45801;51.810;19.444;2024-01-10T04:17:03;57.80;;;30.30;;
59938;SDS011;45801;51.810;19.444;2024-01-10T04:19:31;64.40;;;33.40;;
59938;SDS011;45801;51.810;19.444;2024-01-10T04:21:58;59.60;;;31.60;;
59938;SDS011;45801;51.810;19.444;2024-01-10T04:24:25;60.80;;;31.80;;
59938;SDS011;45801;51.810;19.444;2024-01-10T04:26:52;57.00;;;31.10;;
59938;SDS011;45801;51.810;19.444;2024-01-10T04:29:18;64.70;;;32.20;;
59938;SDS011;45801;51.810;19.444;2024-01-10T04:31:45;63.00;;;32.00;;
59938;SDS011;45801;51.810;19.444;2024-01-10T04:34:11;63.50;;;31.70;;
59938;SDS011;45801;51.810;19.444;2024-01-10T04:36:38;64.60;;;33.30;;
59938;SDS011;45801;51.810;19.444;2024-01-10T04:39:04;62.10;;;32.00;;
59938;SDS011;45801;51.810;19.444;2024-01-10T04:41:31;55.70;;;31.10;;
59938;SDS011;45801;51.810;19.444;2024-01-10T04:43:57;63.50;;;32.70;;
59938;SDS011;45801;51.810;19.444;2024-01-10T04:46:24;67.30;;;34.00;;
59938;SDS011;45801;51.810;19.444;2024-01-10T04:48:50;61.40;;;30.20;;
59938;SDS011;45801;51.810;19.444;2024-01-10T04:51:17;54.90;;;30.00;;
59938;SDS011;45801;51.810;19.444;2024-01-10T04:53:44;66.00;;;30.00;;
59938;SDS011;45801;51.810;19.444;2024-01-10T04:56:10;52.20;;;30.00;;
59938;SDS011;45801;51.810;19.444;2024-01-10T04:58:37;61.30;;;30.60;;
59938;SDS011;45801;51.810;19.444;2024-01-10T05:01:03;62.00;;;29.50;;
59938;SDS011;45801;51.810;19.444;2024-01-10T05:03:30;60.90;;;30.50;;
59938;SDS011;45801;51.810;19.444;2024-01-10T05:05:57;54.30;;;28.80;;
59938;SDS011;45801;51.810;19.444;2024-01-10T05:08:23;56.60;;;28.60;;
59938;SDS011;45801;51.810;19.444;2024-01-10T05:10:50;55.10;;;28.70;;
59938;SDS011;45801;51.810;19.444;2024-01-10T05:13:16;56.70;;;26.90;;
59938;SDS011;45801;51.810;19.444;2024-01-10T05:15:43;51.90;;;27.80;;
59938;SDS011;45801;51.810;19.444;2024-01-10T05:18:10;53.20;;;27.10;;
59938;SDS011;45801;51.810;19.444;2024-01-10T05:20:36;53.20;;;29.20;;
59938;SDS011;45801;51.810;19.444;2024-01-10T05:23:03;52.60;;;29.10;;
59938;SDS011;45801;51.810;19.444;2024-01-10T05:25:30;46.80;;;25.80;;
59938;SDS011;45801;51.810;19.444;2024-01-10T05:27:57;50.70;;;26.70;;
59938;SDS011;45801;51.810;19.444;2024-01-10T05:30:23;48.80;;;25.00;;
59938;SDS011;45801;51.810;19.444;2024-01-10T05:32:50;51.40;;;28.10;;
59938;SDS011;45801;51.810;19.444;2024-01-10T05:35:17;56.50;;;27.00;;
59938;SDS011;45801;51.810;19.444;2024-01-10T05:37:43;49.40;;;25.10;;
59938;SDS011;45801;51.810;19.444;2024-01-10T05:40:11;57.50;;;29.00;;
59938;SDS011;45801;51.810;19.444;2024-01-10T05:42:38;63.30;;;30.40;;
59938;SDS011;45801;51.810;19.444;2024-01-10T05:45:04;64.90;;;30.50;;
59938;SDS011;45801;51.810;19.444;2024-01-10T05:47:32;59.40;;;31.90;;
59938;SDS011;45801;51.810;19.444;2024-01-10T05:49:58;62.30;;;30.40;;
59938;SDS011;45801;51.810;19.444;2024-01-10T05:52:25;67.80;;;32.90;;
59938;SDS011;45801;51.810;19.444;2024-01-10T05:54:52;63.20;;;31.50;;
59938;SDS011;45801;51.810;19.444;2024-01-10T05:57:19;57.90;;;30.20;;
59938;SDS011;45801;51.810;19.444;2024-01-10T05:59:47;59.80;;;30.50;;
59938;SDS011;45801;51.810;19.444;2024-01-10T06:02:14;55.20;;;28.80;;
59938;SDS011;45801;51.810;19.444;2024-01-10T06:04:42;52.20;;;28.80;;
59938;SDS011;45801;51.810;19.444;2024-01-10T06:07:09;51.40;;;27.00;;
59938;SDS011;45801;51.810;19.444;2024-01-10T06:09:36;53.10;;;25.60;;
59938;SDS011;45801;51.810;19.444;2024-01-10T06:12:03;47.20;;;25.60;;
59938;SDS011;45801;51.810;19.444;2024-01-10T06:14:30;47.00;;;25.90;;
59938;SDS011;45801;51.810;19.444;2024-01-10T06:16:56;46.00;;;23.30;;
59938;SDS011;45801;51.810;19.444;2024-01-10T06:19:25;43.70;;;23.40;;
59938;SDS011;45801;51.810;19.444;2024-01-10T06:21:52;50.50;;;24.80;;
59938;SDS011;45801;51.810;19.444;2024-01-10T06:24:18;39.50;;;23.20;;
59938;SDS011;45801;51.810;19.444;2024-01-10T06:26:45;42.70;;;22.10;;
59938;SDS011;45801;51.810;19.444;2024-01-10T06:29:11;41.90;;;22.50;;
59938;SDS011;45801;51.810;19.444;2024-01-10T06:31:38;45.10;;;21.20;;
59938;SDS011;45801;51.810;19.444;2024-01-10T06:34:05;51.20;;;23.40;;
59938;SDS011;45801;51.810;19.444;2024-01-10T06:36:31;48.20;;;24.50;;
59938;SDS011;45801;51.810;19.444;2024-01-10T06:38:58;43.30;;;21.30;;
59938;SDS011;45801;51.810;19.444;2024-01-10T06:41:24;47.60;;;23.70;;
59938;SDS011;45801;51.810;19.444;2024-01-10T06:43:51;43.00;;;23.10;;
59938;SDS011;45801;51.810;19.444;2024-01-10T06:46:18;45.30;;;22.80;;
59938;SDS011;45801;51.810;19.444;2024-01-10T06:48:46;43.90;;;23.20;;
59938;SDS011;45801;51.810;19.444;2024-01-10T06:51:13;42.30;;;22.10;;
59938;SDS011;45801;51.810;19.444;2024-01-10T06:53:40;47.90;;;23.40;;
59938;SDS011;45801;51.810;19.444;2024-01-10T06:56:07;47.10;;;25.00;;
59938;SDS011;45801;51.810;19.444;2024-01-10T06:58:35;47.50;;;23.20;;
59938;SDS011;45801;51.810;19.444;2024-01-10T07:01:02;46.80;;;24.80;;
59938;SDS011;45801;51.810;19.444;2024-01-10T07:03:31;43.60;;;21.80;;
59938;SDS011;45801;51.810;19.444;2024-01-10T07:05:58;41.00;;;21.60;;
59938;SDS011;45801;51.810;19.444;2024-01-10T07:08:25;42.00;;;21.90;;
59938;SDS011;45801;51.810;19.444;2024-01-10T07:10:52;47.00;;;24.00;;
59938;SDS011;45801;51.810;19.444;2024-01-10T07:13:22;44.10;;;22.30;;
59938;SDS011;45801;51.810;19.444;2024-01-10T07:15:49;45.00;;;23.90;;
59938;SDS011;45801;51.810;19.444;2024-01-10T07:18:19;48.40;;;24.20;;
59938;SDS011;45801;51.810;19.444;2024-01-10T07:20:45;44.40;;;23.10;;
59938;SDS011;45801;51.810;19.444;2024-01-10T07:23:12;44.90;;;22.80;;
59938;SDS011;45801;51.810;19.444;2024-01-10T07:25:39;47.70;;;24.00;;
59938;SDS011;45801;51.810;19.444;2024-01-10T07:28:06;48.70;;;23.90;;
59938;SDS011;45801;51.810;19.444;2024-01-10T07:30:33;50.80;;;26.40;;
59938;SDS011;45801;51.810;19.444;2024-01-10T07:32:59;52.80;;;25.40;;
59938;SDS011;45801;51.810;19.444;2024-01-10T07:35:26;46.80;;;26.50;;
59938;SDS011;45801;51.810;19.444;2024-01-10T07:37:53;47.80;;;24.80;;
59938;SDS011;45801;51.810;19.444;2024-01-10T07:40:20;51.00;;;24.50;;
59938;SDS011;45801;51.810;19.444;2024-01-10T07:42:47;47.00;;;24.90;;
59938;SDS011;45801;51.810;19.444;2024-01-10T07:45:13;46.30;;;24.90;;
59938;SDS011;45801;51.810;19.444;2024-01-10T07:47:40;50.70;;;25.40;;
59938;SDS011;45801;51.810;19.444;2024-01-10T07:50:07;47.80;;;26.20;;
59938;SDS011;45801;51.810;19.444;2024-01-10T07:52:35;51.10;;;26.00;;
59938;SDS011;45801;51.810;19.444;2024-01-10T07:55:01;43.00;;;24.00;;
59938;SDS011;45801;51.810;19.444;2024-01-10T07:57:31;48.40;;;24.50;;
59938;SDS011;45801;51.810;19.444;2024-01-10T07:59:58;47.40;;;24.50;;
59938;SDS011;45801;51.810;19.444;2024-01-10T08:02:25;42.70;;;24.10;;
59938;SDS011;45801;51.810;19.444;2024-01-10T08:04:52;50.50;;;23.80;;
59938;SDS011;45801;51.810;19.444;2024-01-10T08:07:19;49.20;;;25.00;;
59938;SDS011;45801;51.810;19.444;2024-01-10T08:09:46;42.90;;;23.80;;
59938;SDS011;45801;51.810;19.444;2024-01-10T08:12:13;45.40;;;23.50;;
59938;SDS011;45801;51.810;19.444;2024-01-10T08:14:40;50.10;;;25.50;;
59938;SDS011;45801;51.810;19.444;2024-01-10T08:17:08;45.40;;;24.60;;
59938;SDS011;45801;51.810;19.444;2024-01-10T08:19:34;46.70;;;24.10;;
59938;SDS011;45801;51.810;19.444;2024-01-10T08:22:04;46.10;;;23.60;;
59938;SDS011;45801;51.810;19.444;2024-01-10T08:24:30;44.30;;;23.80;;
59938;SDS011;45801;51.810;19.444;2024-01-10T08:26:57;56.70;;;26.70;;
59938;SDS011;45801;51.810;19.444;2024-01-10T08:29:24;53.00;;;26.10;;
59938;SDS011;45801;51.810;19.444;2024-01-10T08:31:56;46.10;;;24.40;;
59938;SDS011;45801;51.810;19.444;2024-01-10T08:34:24;49.40;;;26.60;;
59938;SDS011;45801;51.810;19.444;2024-01-10T08:36:51;44.10;;;22.90;;
59938;SDS011;45801;51.810;19.444;2024-01-10T08:39:19;38.60;;;21.60;;
59938;SDS011;45801;51.810;19.444;2024-01-10T08:41:48;41.30;;;22.90;;
59938;SDS011;45801;51.810;19.444;2024-01-10T08:44:14;38.20;;;19.80;;
59938;SDS011;45801;51.810;19.444;2024-01-10T08:46:41;37.50;;;20.30;;
59938;SDS011;45801;51.810;19.444;2024-01-10T08:49:07;35.90;;;20.00;;
59938;SDS011;45801;51.810;19.444;2024-01-10T08:51:34;35.20;;;20.40;;
59938;SDS011;45801;51.810;19.444;2024-01-10T08:54:00;31.60;;;17.00;;
59938;SDS011;45801;51.810;19.444;2024-01-10T08:56:27;36.80;;;19.10;;
59938;SDS011;45801;51.810;19.444;2024-01-10T08:58:54;35.50;;;18.40;;
59938;SDS011;45801;51.810;19.444;2024-01-10T09:01:21;36.70;;;19.80;;
59938;SDS011;45801;51.810;19.444;2024-01-10T09:03:49;35.50;;;17.00;;
59938;SDS011;45801;51.810;19.444;2024-01-10T09:06:17;35.50;;;20.50;;
59938;SDS011;45801;51.810;19.444;2024-01-10T09:08:44;36.80;;;20.00;;
59938;SDS011;45801;51.810;19.444;2024-01-10T09:11:10;37.50;;;21.90;;
59938;SDS011;45801;51.810;19.444;2024-01-10T09:13:37;38.20;;;19.80;;
59938;SDS011;45801;51.810;19.444;2024-01-10T09:16:06;36.10;;;19.30;;
59938;SDS011;45801;51.810;19.444;2024-01-10T09:18:33;40.30;;;20.50;;
59938;SDS011;45801;51.810;19.444;2024-01-10T09:20:59;39.50;;;22.60;;
59938;SDS011;45801;51.810;19.444;2024-01-10T09:23:26;33.60;;;19.30;;
59938;SDS011;45801;51.810;19.444;2024-01-10T09:25:53;41.10;;;21.60;;
59938;SDS011;45801;51.810;19.444;2024-01-10T09:28:20;41.30;;;20.50;;
59938;SDS011;45801;51.810;19.444;2024-01-10T09:30:47;40.60;;;21.50;;
59938;SDS011;45801;51.810;19.444;2024-01-10T09:33:13;41.20;;;21.30;;
59938;SDS011;45801;51.810;19.444;2024-01-10T09:35:40;40.20;;;20.80;;
59938;SDS011;45801;51.810;19.444;2024-01-10T09:38:07;38.40;;;21.00;;
59938;SDS011;45801;51.810;19.444;2024-01-10T09:40:34;39.50;;;21.00;;
59938;SDS011;45801;51.810;19.444;2024-01-10T09:43:00;39.10;;;20.10;;
59938;SDS011;45801;51.810;19.444;2024-01-10T09:45:27;35.90;;;20.00;;
59938;SDS011;45801;51.810;19.444;2024-01-10T09:47:58;45.50;;;20.60;;
59938;SDS011;45801;51.810;19.444;2024-01-10T09:50:24;37.60;;;20.30;;
59938;SDS011;45801;51.810;19.444;2024-01-10T09:52:58;37.50;;;20.70;;
59938;SDS011;45801;51.810;19.444;2024-01-10T09:55:30;33.30;;;16.20;;
59938;SDS011;45801;51.810;19.444;2024-01-10T09:58:03;36.00;;;19.40;;
59938;SDS011;45801;51.810;19.444;2024-01-10T10:00:35;33.10;;;16.80;;
59938;SDS011;45801;51.810;19.444;2024-01-10T10:03:04;34.50;;;19.20;;
59938;SDS011;45801;51.810;19.444;2024-01-10T10:05:33;37.90;;;19.60;;
59938;SDS011;45801;51.810;19.444;2024-01-10T10:08:19;37.00;;;19.80;;
59938;SDS011;45801;51.810;19.444;2024-01-10T10:10:48;34.90;;;18.60;;
59938;SDS011;45801;51.810;19.444;2024-01-10T10:13:25;32.00;;;17.80;;
59938;SDS011;45801;51.810;19.444;2024-01-10T10:16:02;36.00;;;19.90;;
59938;SDS011;45801;51.810;19.444;2024-01-10T10:18:30;36.10;;;21.20;;
59938;SDS011;45801;51.810;19.444;2024-01-10T10:23:38;39.30;;;20.50;;
59938;SDS011;45801;51.810;19.444;2024-01-10T10:26:24;36.00;;;21.20;;
59938;SDS011;45801;51.810;19.444;2024-01-10T10:28:53;35.90;;;20.00;;
59938;SDS011;45801;51.810;19.444;2024-01-10T10:31:20;38.40;;;19.90;;
59938;SDS011;45801;51.810;19.444;2024-01-10T10:33:48;36.40;;;18.70;;
59938;SDS011;45801;51.810;19.444;2024-01-10T10:36:17;38.30;;;20.80;;
59938;SDS011;45801;51.810;19.444;2024-01-10T10:38:47;38.10;;;21.00;;
59938;SDS011;45801;51.810;19.444;2024-01-10T10:41:17;39.70;;;19.40;;
59938;SDS011;45801;51.810;19.444;2024-01-10T10:43:45;35.20;;;19.90;;
59938;SDS011;45801;51.810;19.444;2024-01-10T10:46:13;36.80;;;21.30;;
59938;SDS011;45801;51.810;19.444;2024-01-10T10:48:40;36.40;;;19.60;;
59938;SDS011;45801;51.810;19.444;2024-01-10T10:51:09;39.30;;;18.90;;
59938;SDS011;45801;51.810;19.444;2024-01-10T10:53:38;37.70;;;19.10;;
59938;SDS011;45801;51.810;19.444;2024-01-10T10:56:06;39.00;;;19.80;;
59938;SDS011;45801;51.810;19.444;2024-01-10T10:58:35;38.30;;;19.90;;
59938;SDS011;45801;51.810;19.444;2024-01-10T11:01:04;40.70;;;20.00;;
59938;SDS011;45801;51.810;19.444;2024-01-10T11:03:34;32.50;;;17.90;;
59938;SDS011;45801;51.810;19.444;2024-01-10T11:06:05;33.40;;;18.10;;
59938;SDS011;45801;51.810;19.444;2024-01-10T11:08:40;34.20;;;18.90;;
59938;SDS011;45801;51.810;19.444;2024-01-10T11:11:21;33.80;;;17.10;;
59938;SDS011;45801;51.810;19.444;2024-01-10T11:14:19;31.80;;;16.60;;
59938;SDS011;45801;51.810;19.444;2024-01-10T11:17:14;31.10;;;17.50;;
59938;SDS011;45801;51.810;19.444;2024-01-10T11:20:22;32.60;;;17.30;;
59938;SDS011;45801;51.810;19.444;2024-01-10T11:25:37;36.00;;;18.50;;
59938;SDS011;45801;51.810;19.444;2024-01-10T11:28:04;35.50;;;18.30;;
59938;SDS011;45801;51.810;19.444;2024-01-10T11:33:02;37.00;;;19.60;;
59938;SDS011;45801;51.810;19.444;2024-01-10T11:36:05;39.80;;;19.90;;
59938;SDS011;45801;51.810;19.444;2024-01-10T11:38:39;37.40;;;18.80;;
59938;SDS011;45801;51.810;19.444;2024-01-10T11:41:10;50.40;;;30.50;;
59938;SDS011;45801;51.810;19.444;2024-01-10T11:43:38;45.10;;;23.50;;
59938;SDS011;45801;51.810;19.444;2024-01-10T11:46:05;36.40;;;21.00;;
59938;SDS011;45801;51.810;19.444;2024-01-10T11:48:32;37.00;;;18.80;;
59938;SDS011;45801;51.810;19.444;2024-01-10T11:50:59;35.50;;;18.30;;
59938;SDS011;45801;51.810;19.444;2024-01-10T11:53:39;31.20;;;17.30;;
59938;SDS011;45801;51.810;19.444;2024-01-10T11:56:09;44.50;;;24.60;;
59938;SDS011;45801;51.810;19.444;2024-01-10T12:01:35;34.90;;;19.40;;
59938;SDS011;45801;51.810;19.444;2024-01-10T12:04:02;37.80;;;18.00;;
59938;SDS011;45801;51.810;19.444;2024-01-10T12:06:37;29.90;;;17.70;;
59938;SDS011;45801;51.810;19.444;2024-01-10T12:09:04;35.50;;;18.00;;
59938;SDS011;45801;51.810;19.444;2024-01-10T12:11:35;33.70;;;17.10;;
59938;SDS011;45801;51.810;19.444;2024-01-10T12:14:02;32.70;;;16.60;;
59938;SDS011;45801;51.810;19.444;2024-01-10T12:16:29;29.80;;;14.90;;
59938;SDS011;45801;51.810;19.444;2024-01-10T12:18:55;28.20;;;14.20;;
59938;SDS011;45801;51.810;19.444;2024-01-10T12:21:22;26.60;;;14.40;;
59938;SDS011;45801;51.810;19.444;2024-01-10T12:23:48;24.20;;;13.60;;
59938;SDS011;45801;51.810;19.444;2024-01-10T12:26:17;28.80;;;13.80;;
59938;SDS011;45801;51.810;19.444;2024-01-10T12:28:55;26.70;;;14.30;;
59938;SDS011;45801;51.810;19.444;2024-01-10T12:31:23;25.60;;;14.00;;
59938;SDS011;45801;51.810;19.444;2024-01-10T12:33:54;27.50;;;14.90;;
59938;SDS011;45801;51.810;19.444;2024-01-10T12:36:21;29.00;;;15.10;;
59938;SDS011;45801;51.810;19.444;2024-01-10T12:38:48;30.80;;;16.50;;
59938;SDS011;45801;51.810;19.444;2024-01-10T12:41:16;26.40;;;15.10;;
59938;SDS011;45801;51.810;19.444;2024-01-10T12:43:54;28.70;;;15.90;;
59938;SDS011;45801;51.810;19.444;2024-01-10T12:46:21;27.10;;;15.10;;
59938;SDS011;45801;51.810;19.444;2024-01-10T12:49:03;34.10;;;15.30;;
59938;SDS011;45801;51.810;19.444;2024-01-10T12:51:34;30.90;;;14.50;;
59938;SDS011;45801;51.810;19.444;2024-01-10T12:54:04;28.00;;;14.50;;
59938;SDS011;45801;51.810;19.444;2024-01-10T12:56:30;29.40;;;14.60;;
59938;SDS011;45801;51.810;19.444;2024-01-10T12:58:58;34.50;;;16.30;;
59938;SDS011;45801;51.810;19.444;2024-01-10T13:01:24;27.20;;;14.00;;
59938;SDS011;45801;51.810;19.444;2024-01-10T13:03:51;31.30;;;15.80;;
59938;SDS011;45801;51.810;19.444;2024-01-10T13:06:18;26.00;;;14.10;;
59938;SDS011;45801;51.810;19.444;2024-01-10T13:08:48;27.00;;;14.90;;
59938;SDS011;45801;51.810;19.444;2024-01-10T13:11:15;27.90;;;15.10;;
59938;SDS011;45801;51.810;19.444;2024-01-10T13:13:42;24.80;;;13.20;;
59938;SDS011;45801;51.810;19.444;2024-01-10T13:16:11;28.70;;;14.50;;
59938;SDS011;45801;51.810;19.444;2024-01-10T13:18:38;30.20;;;13.80;;
59938;SDS011;45801;51.810;19.444;2024-01-10T13:21:05;27.90;;;12.80;;
59938;SDS011;45801;51.810;19.444;2024-01-10T13:23:32;23.60;;;13.30;;
59938;SDS011;45801;51.810;19.444;2024-01-10T13:25:59;25.90;;;14.00;;
59938;SDS011;45801;51.810;19.444;2024-01-10T13:28:26;28.20;;;13.70;;
59938;SDS011;45801;51.810;19.444;2024-01-10T13:30:54;25.10;;;13.60;;
59938;SDS011;45801;51.810;19.444;2024-01-10T13:33:22;25.70;;;13.50;;
59938;SDS011;45801;51.810;19.444;2024-01-10T13:35:48;26.80;;;14.20;;
59938;SDS011;45801;51.810;19.444;2024-01-10T13:38:16;27.80;;;14.20;;
59938;SDS011;45801;51.810;19.444;2024-01-10T13:40:43;30.00;;;14.30;;
59938;SDS011;45801;51.810;19.444;2024-01-10T13:43:10;32.60;;;16.40;;
59938;SDS011;45801;51.810;19.444;2024-01-10T13:45:37;38.50;;;19.20;;
59938;SDS011;45801;51.810;19.444;2024-01-10T13:48:05;37.30;;;19.20;;
59938;SDS011;45801;51.810;19.444;2024-01-10T13:50:32;40.60;;;20.70;;
59938;SDS011;45801;51.810;19.444;2024-01-10T13:52:59;33.40;;;17.10;;
59938;SDS011;45801;51.810;19.444;2024-01-10T13:55:26;43.70;;;20.90;;
59938;SDS011;45801;51.810;19.444;2024-01-10T13:57:52;33.20;;;18.70;;
59938;SDS011;45801;51.810;19.444;2024-01-10T14:00:20;36.00;;;19.30;;
59938;SDS011;45801;51.810;19.444;2024-01-10T14:02:46;30.60;;;15.90;;
59938;SDS011;45801;51.810;19.444;2024-01-10T14:05:13;33.00;;;17.20;;
59938;SDS011;45801;51.810;19.444;2024-01-10T14:07:40;37.10;;;18.40;;
59938;SDS011;45801;51.810;19.444;2024-01-10T14:10:11;34.90;;;17.20;;
59938;SDS011;45801;51.810;19.444;2024-01-10T14:12:39;34.60;;;16.50;;
59938;SDS011;45801;51.810;19.444;2024-01-10T14:15:06;31.00;;;16.50;;
59938;SDS011;45801;51.810;19.444;2024-01-10T14:17:33;29.80;;;15.30;;
59938;SDS011;45801;51.810;19.444;2024-01-10T14:19:59;26.80;;;15.10;;
59938;SDS011;45801;51.810;19.444;2024-01-10T14:22:25;23.40;;;12.20;;